Time;durP1;ratioP1;P1;durP2;ratioP2;P2;SDS_P1;SDS_P2;PMS_P1;PMS_P2;Temp;Humidity;BMP_temperature;BMP_pressure;BME280_temperature;BME280_humidity;BME280_pressure;Samples;Min_cycle;Max_cycle;Signal;HPM_P1;HPM_P2
2021/11/06 00:00:06;;;;;;;10.10;4.25;;;;;;;15.10;62.37;99288.41;3494030;28;20415;-71
2021/11/06 00:01:52;;;;;;;7.05;4.45;;;;;;;15.08;62.17;99280.63;3473268;28;20593;-72
2021/11/06 00:03:33;;;;;;;8.80;4.45;;;;;;;15.09;62.46;99287.59;3491357;28;20131;-73
2021/11/06 00:05:15;;;;;;;6.60;4.30;;;;;;;15.05;62.46;99276.53;3491178;28;20044;-74
2021/11/06 00:06:56;;;;;;;5.88;4.00;;;;;;;15.09;62.26;99279.56;3484053;28;20480;-74
2021/11/06 00:08:37;;;;;;;9.63;4.60;;;;;;;15.08;62.30;99277.13;3488148;28;20131;-72
2021/11/06 00:10:19;;;;;;;6.60;3.90;;;;;;;15.08;62.61;99280.63;3491270;28;20041;-72
2021/11/06 00:11:59;;;;;;;5.82;4.00;;;;;;;15.09;62.33;99294.84;3482239;28;20033;-71
2021/11/06 00:13:40;;;;;;;9.07;5.63;;;;;;;15.08;62.37;99286.00;3475700;28;20412;-72
2021/11/06 00:15:21;;;;;;;6.57;4.55;;;;;;;15.05;62.63;99283.78;3493447;28;20040;-72
2021/11/06 00:17:02;;;;;;;8.25;4.78;;;;;;;15.05;62.69;99289.16;3481654;28;20094;-72
2021/11/06 00:18:43;;;;;;;9.38;4.72;;;;;;;15.06;62.41;99285.41;3487870;28;20048;-73
2021/11/06 00:20:24;;;;;;;8.05;4.47;;;;;;;15.05;62.43;99281.09;3480811;28;20041;-72
2021/11/06 00:22:05;;;;;;;7.85;4.65;;;;;;;15.01;62.71;99285.28;3493211;28;20141;-73
2021/11/06 00:23:46;;;;;;;7.43;4.70;;;;;;;15.03;62.57;99278.63;3495953;28;20499;-72
2021/11/06 00:25:28;;;;;;;9.07;4.97;;;;;;;14.99;62.58;99272.09;3481375;28;20526;-71
2021/11/06 00:27:09;;;;;;;9.80;5.40;;;;;;;15.02;62.33;99278.84;3492593;28;20044;-72
2021/11/06 00:28:50;;;;;;;5.60;4.30;;;;;;;15.01;62.58;99279.91;3481630;28;20071;-72
2021/11/06 00:30:31;;;;;;;7.18;5.03;;;;;;;15.01;62.19;99280.72;3491817;28;20051;-72
2021/11/06 00:32:12;;;;;;;8.23;4.95;;;;;;;15.01;62.54;99274.53;3495758;28;20051;-72
2021/11/06 00:33:52;;;;;;;7.43;4.82;;;;;;;15.00;62.43;99271.06;3495852;28;20131;-72
2021/11/06 00:35:33;;;;;;;7.57;4.88;;;;;;;14.96;62.78;99261.81;3492375;28;20458;-72
2021/11/06 00:37:14;;;;;;;10.82;4.75;;;;;;;14.97;62.63;99265.31;3489675;28;20037;-72
2021/11/06 00:38:55;;;;;;;6.55;4.88;;;;;;;14.99;62.63;99265.91;3481568;28;20479;-71
2021/11/06 00:40:36;;;;;;;9.07;5.40;;;;;;;14.98;62.60;99275.03;3488171;28;20045;-72
2021/11/06 00:42:17;;;;;;;8.40;5.53;;;;;;;14.97;62.54;99252.75;3481168;28;20044;-71
2021/11/06 00:43:59;;;;;;;6.88;5.60;;;;;;;14.97;62.36;99257.25;3473602;28;20430;-71
2021/11/06 00:45:40;;;;;;;8.48;4.72;;;;;;;14.92;62.46;99257.16;3480717;28;20565;-72
2021/11/06 00:47:21;;;;;;;8.43;4.97;;;;;;;14.93;62.73;99266.84;3455105;28;20041;-71
2021/11/06 00:49:03;;;;;;;6.38;4.70;;;;;;;14.94;62.53;99268.47;3488709;28;20098;-71
2021/11/06 00:50:43;;;;;;;7.50;4.72;;;;;;;14.95;62.54;99254.03;3495204;28;20072;-71
2021/11/06 00:52:24;;;;;;;6.80;5.25;;;;;;;14.93;62.58;99261.47;3496041;28;20036;-71
2021/11/06 00:54:05;;;;;;;7.40;4.47;;;;;;;14.93;62.73;99272.22;3496004;28;20036;-72
2021/11/06 00:55:46;;;;;;;7.18;4.82;;;;;;;14.90;62.71;99259.28;3495240;28;20039;-71
2021/11/06 00:57:27;;;;;;;7.65;5.60;;;;;;;14.91;62.75;99261.69;3494744;28;20503;-72
2021/11/06 00:59:08;;;;;;;7.88;5.80;;;;;;;14.91;62.81;99269.75;3494823;28;20036;-71
2021/11/06 01:00:49;;;;;;;8.77;5.10;;;;;;;14.92;62.43;99262.50;3480873;28;20128;-71
2021/11/06 01:02:30;;;;;;;8.10;5.65;;;;;;;14.90;62.53;99267.31;3492404;28;20519;-72
2021/11/06 01:04:10;;;;;;;10.05;5.25;;;;;;;14.90;62.48;99262.75;3481325;28;20041;-72
2021/11/06 01:05:51;;;;;;;8.30;5.82;;;;;;;14.88;62.68;99256.81;3495945;28;20048;-71
2021/11/06 01:07:32;;;;;;;9.55;5.88;;;;;;;14.90;62.64;99267.31;3498588;28;20075;-71
2021/11/06 01:09:13;;;;;;;7.38;5.22;;;;;;;14.91;62.70;99264.38;3483311;28;20041;-71
2021/11/06 01:10:54;;;;;;;11.25;5.43;;;;;;;14.92;62.75;99271.41;3495762;28;20055;-72
2021/11/06 01:12:34;;;;;;;8.50;5.47;;;;;;;14.89;62.53;99265.66;3483681;28;20029;-71
2021/11/06 01:14:15;;;;;;;6.07;5.05;;;;;;;14.90;62.69;99261.97;3495284;28;20079;-72
2021/11/06 01:15:57;;;;;;;7.25;6.00;;;;;;;14.92;62.60;99267.88;3499816;28;20042;-70
2021/11/06 01:17:38;;;;;;;8.70;5.53;;;;;;;14.94;62.68;99257.75;3503521;28;20074;-71
2021/11/06 01:19:19;;;;;;;8.57;5.32;;;;;;;14.94;62.84;99263.09;3500813;28;20064;-71
2021/11/06 01:20:59;;;;;;;9.05;5.90;;;;;;;14.91;62.72;99252.84;3499610;28;20093;-72
2021/11/06 01:22:40;;;;;;;7.75;4.82;;;;;;;14.93;63.02;99266.84;3498461;28;20059;-72
2021/11/06 01:24:21;;;;;;;11.13;5.85;;;;;;;14.90;62.83;99260.09;3498370;28;20182;-71
2021/11/06 01:26:05;;;;;;;7.60;5.40;;;;;;;14.93;63.16;99269.53;3502707;28;20402;-70
2021/11/06 01:27:47;;;;;;;9.48;6.20;;;;;;;14.95;63.02;99278.19;3504039;28;20067;-71
2021/11/06 01:29:28;;;;;;;7.30;5.18;;;;;;;14.95;62.88;99270.94;3469851;28;20044;-72
2021/11/06 01:31:09;;;;;;;11.02;5.70;;;;;;;14.96;62.65;99279.78;3492698;28;20500;-72
2021/11/06 01:32:50;;;;;;;7.32;4.70;;;;;;;14.96;62.79;99285.16;3498294;28;20036;-71
2021/11/06 01:34:30;;;;;;;7.07;5.60;;;;;;;14.95;62.59;99284.34;3483963;28;20067;-72
2021/11/06 01:36:11;;;;;;;8.45;5.13;;;;;;;14.96;62.91;99291.34;3483906;28;20072;-73
2021/11/06 01:37:52;;;;;;;8.05;5.13;;;;;;;14.96;62.78;99287.84;3495507;28;20033;-71
2021/11/06 01:39:33;;;;;;;7.22;4.97;;;;;;;14.96;62.88;99282.47;3483198;28;20086;-71
2021/11/06 01:41:13;;;;;;;8.70;5.43;;;;;;;14.98;62.80;99277.69;3483491;28;20391;-71
2021/11/06 01:42:55;;;;;;;7.65;5.43;;;;;;;14.97;62.52;99278.72;3494989;28;20040;-72
2021/11/06 01:44:35;;;;;;;6.90;4.70;;;;;;;14.96;62.44;99279.78;3498051;28;20032;-71
2021/11/06 01:46:16;;;;;;;7.97;5.13;;;;;;;14.96;62.57;99277.13;3498061;28;20511;-70
2021/11/06 01:47:57;;;;;;;9.32;5.57;;;;;;;14.94;62.68;99280.00;3498512;28;20047;-74
2021/11/06 01:49:38;;;;;;;8.63;6.15;;;;;;;14.93;62.27;99273.03;3482867;28;20498;-71
2021/11/06 01:51:22;;;;;;;11.65;5.68;;;;;;;14.92;62.22;99270.56;3495580;28;20043;-72
2021/11/06 01:53:03;;;;;;;9.43;5.28;;;;;;;14.90;62.36;99268.13;3497728;28;20069;-72
2021/11/06 01:54:43;;;;;;;9.43;6.28;;;;;;;14.87;62.34;99275.81;3497729;28;20036;-71
2021/11/06 01:56:24;;;;;;;7.95;5.75;;;;;;;14.88;61.82;99277.47;3498204;28;20040;-72
2021/11/06 01:58:05;;;;;;;13.95;6.07;;;;;;;14.82;61.84;99268.47;3497771;28;20081;-71
2021/11/06 01:59:46;;;;;;;7.57;5.30;;;;;;;14.86;61.81;99277.69;3482513;28;20033;-71
2021/11/06 02:01:26;;;;;;;7.45;5.68;;;;;;;14.85;61.79;99272.56;3494756;28;20032;-72
2021/11/06 02:03:08;;;;;;;8.27;5.50;;;;;;;14.82;61.80;99271.97;3483382;28;20511;-72
2021/11/06 02:04:49;;;;;;;10.15;6.20;;;;;;;14.86;61.70;99274.19;3494765;28;20054;-71
2021/11/06 02:06:30;;;;;;;7.93;5.10;;;;;;;14.86;61.81;99263.47;3497924;28;20465;-71
2021/11/06 02:08:14;;;;;;;11.07;5.65;;;;;;;14.83;61.65;99278.97;3497757;28;20036;-72
2021/11/06 02:09:55;;;;;;;9.77;6.03;;;;;;;14.84;61.49;99277.09;3497431;28;20518;-71
2021/11/06 02:11:37;;;;;;;9.10;6.57;;;;;;;14.82;61.36;99268.47;3498322;28;20120;-72
2021/11/06 02:13:18;;;;;;;11.27;6.18;;;;;;;14.78;61.25;99265.44;3498012;28;20048;-72
2021/11/06 02:14:59;;;;;;;8.93;5.47;;;;;;;14.77;60.83;99279.91;3497354;28;20037;-71
2021/11/06 02:16:40;;;;;;;10.60;6.30;;;;;;;14.71;60.72;99277.31;3497881;28;20294;-72
2021/11/06 02:18:20;;;;;;;7.43;5.72;;;;;;;14.71;60.48;99291.53;3497955;28;20042;-72
2021/11/06 02:20:02;;;;;;;10.10;6.05;;;;;;;14.69;60.62;99299.03;3497565;28;20064;-71
2021/11/06 02:21:45;;;;;;;9.35;6.20;;;;;;;14.68;60.44;99292.00;3482802;28;20045;-71
2021/11/06 02:23:25;;;;;;;;;;;;;;;14.74;60.81;99301.00;3495585;28;20126;-72
2021/11/06 02:25:07;;;;;;;9.57;5.20;;;;;;;14.65;60.45;99291.66;3496249;28;19957;-72
2021/11/06 02:26:48;;;;;;;8.30;4.85;;;;;;;14.63;60.39;99297.25;3497823;28;20469;-72
2021/11/06 02:28:29;;;;;;;8.38;5.05;;;;;;;14.62;60.27;99303.69;3497931;28;20044;-72
2021/11/06 02:30:12;;;;;;;7.10;4.88;;;;;;;14.60;60.28;99305.75;3482049;28;20044;-72
2021/11/06 02:31:53;;;;;;;7.57;5.50;;;;;;;14.59;59.80;99301.47;3480505;28;20039;-71
2021/11/06 02:33:33;;;;;;;5.75;4.55;;;;;;;14.57;59.85;99300.88;3494772;28;20068;-71
2021/11/06 02:35:15;;;;;;;8.07;5.00;;;;;;;14.56;59.69;99304.56;3496676;28;20400;-70
2021/11/06 02:36:55;;;;;;;6.82;4.70;;;;;;;14.54;59.34;99301.34;3497561;28;20097;-72
2021/11/06 02:38:36;;;;;;;7.20;3.80;;;;;;;14.48;59.00;99303.03;3497684;28;20128;-70
2021/11/06 02:40:17;;;;;;;8.32;3.58;;;;;;;14.47;58.51;99295.22;3496415;28;20040;-71
2021/11/06 02:42:09;;;;;;;5.13;3.92;;;;;;;14.45;58.16;99287.38;3497644;28;20032;-70
2021/11/06 02:43:49;;;;;;;4.50;3.50;;;;;;;14.41;57.94;99291.59;3481924;28;20091;-71
2021/11/06 02:45:30;;;;;;;7.70;3.38;;;;;;;14.39;57.79;99301.72;3495044;28;20036;-71
2021/11/06 02:47:11;;;;;;;3.75;3.15;;;;;;;14.35;57.85;99304.06;3481868;28;20051;-72
2021/11/06 02:48:52;;;;;;;5.15;3.40;;;;;;;14.34;57.47;99313.13;3494664;28;20036;-71
2021/11/06 02:50:32;;;;;;;5.85;3.63;;;;;;;14.32;57.25;99299.13;3496184;28;20037;-73
2021/11/06 02:52:13;;;;;;;4.15;3.03;;;;;;;14.28;57.10;99295.28;3496895;28;20040;-71
2021/11/06 02:53:54;;;;;;;5.07;3.40;;;;;;;14.26;57.16;99293.88;3481760;28;20151;-71
2021/11/06 02:55:35;;;;;;;4.72;2.72;;;;;;;14.22;56.92;99298.03;3494865;28;20110;-71
2021/11/06 02:57:16;;;;;;;4.00;2.63;;;;;;;14.16;56.76;99297.09;3497411;28;20507;-72
2021/11/06 02:58:58;;;;;;;3.55;2.92;;;;;;;14.13;56.49;99292.19;3496944;28;20506;-72
2021/11/06 03:00:40;;;;;;;3.15;2.83;;;;;;;14.09;56.65;99288.31;3496796;28;20033;-72
2021/11/06 03:02:21;;;;;;;3.45;2.40;;;;;;;14.06;56.62;99308.34;3496758;28;20044;-71
2021/11/06 03:04:07;;;;;;;6.43;2.80;;;;;;;14.01;56.27;99307.41;3496883;28;20404;-72
2021/11/06 03:05:48;;;;;;;3.58;2.40;;;;;;;13.96;56.39;99310.75;3495754;28;20040;-72
2021/11/06 03:07:28;;;;;;;4.05;2.50;;;;;;;13.90;56.06;99299.09;3482586;28;20056;-72
2021/11/06 03:09:10;;;;;;;3.22;2.35;;;;;;;13.85;55.89;99293.59;3494211;28;20045;-72
2021/11/06 03:10:50;;;;;;;2.72;2.42;;;;;;;13.79;55.86;99299.03;3482602;28;20542;-72
2021/11/06 03:12:31;;;;;;;2.08;1.90;;;;;;;13.76;55.32;99305.66;3493889;28;20044;-72
2021/11/06 03:14:13;;;;;;;;;;;;;;;13.84;55.79;99291.16;3482527;28;20041;-71
2021/11/06 03:15:54;;;;;;;2.33;1.90;;;;;;;13.70;55.02;99293.16;3465677;28;20039;-71
2021/11/06 03:17:34;;;;;;;2.25;1.80;;;;;;;13.65;54.77;99295.69;3490918;28;20042;-71
2021/11/06 03:19:15;;;;;;;3.05;1.73;;;;;;;13.59;54.75;99302.75;3497060;28;20043;-71
2021/11/06 03:20:57;;;;;;;3.28;1.73;;;;;;;13.55;54.57;99287.34;3496935;28;20040;-72
2021/11/06 03:22:38;;;;;;;;;;;;;;;13.61;55.08;99287.28;3497113;28;20094;-70
2021/11/06 03:24:19;;;;;;;2.00;1.80;;;;;;;13.47;54.44;99286.63;3481772;28;20319;-71
2021/11/06 03:25:59;;;;;;;2.55;1.77;;;;;;;13.41;54.17;99287.50;3479469;28;20079;-72
2021/11/06 03:27:43;;;;;;;2.78;2.00;;;;;;;13.37;54.06;99293.53;3479615;28;20405;-72
2021/11/06 03:29:24;;;;;;;2.65;1.98;;;;;;;13.33;54.24;99295.84;3483041;28;20110;-72
2021/11/06 03:31:05;;;;;;;3.53;2.50;;;;;;;13.29;54.23;99300.00;3482774;28;20116;-71
2021/11/06 03:32:46;;;;;;;2.35;2.15;;;;;;;13.27;54.48;99291.38;3482654;28;20033;-73
2021/11/06 03:34:27;;;;;;;2.05;1.88;;;;;;;13.25;54.67;99296.09;3483252;28;20044;-72
2021/11/06 03:36:08;;;;;;;2.40;2.17;;;;;;;13.24;54.41;99289.09;3482524;28;20041;-72
2021/11/06 03:37:49;;;;;;;2.25;1.92;;;;;;;13.21;54.44;99286.88;3483476;28;20483;-72
2021/11/06 03:39:30;;;;;;;3.25;2.20;;;;;;;13.21;54.54;99289.56;3481971;28;20431;-72
2021/11/06 03:41:11;;;;;;;2.80;1.55;;;;;;;13.18;54.57;99271.28;3479825;28;20064;-73
2021/11/06 03:42:51;;;;;;;2.13;1.92;;;;;;;13.14;54.50;99276.25;3478982;28;20040;-72
2021/11/06 03:44:33;;;;;;;3.10;2.15;;;;;;;13.14;54.79;99281.59;3482321;28;20516;-72
2021/11/06 03:46:14;;;;;;;3.17;2.55;;;;;;;13.14;54.62;99280.75;3482879;28;20037;-72
2021/11/06 03:47:54;;;;;;;3.70;2.08;;;;;;;13.12;54.55;99280.19;3483103;28;20052;-73
2021/11/06 03:49:35;;;;;;;2.35;2.08;;;;;;;13.09;54.37;99289.47;3483096;28;20076;-73
2021/11/06 03:51:16;;;;;;;2.88;1.95;;;;;;;13.06;54.37;99288.06;3482500;28;20041;-71
2021/11/06 03:52:57;;;;;;;3.28;2.40;;;;;;;13.02;54.14;99281.50;3482525;28;20399;-73
2021/11/06 03:54:37;;;;;;;2.95;2.63;;;;;;;13.02;54.29;99294.88;3482694;28;20135;-72
2021/11/06 03:56:18;;;;;;;1.63;1.52;;;;;;;12.99;54.12;99295.31;3482939;28;20566;-73
2021/11/06 03:57:59;;;;;;;3.60;2.33;;;;;;;13.00;54.17;99296.13;3482013;28;20133;-72
2021/11/06 03:59:40;;;;;;;4.15;2.10;;;;;;;12.98;54.25;99284.84;3482073;28;20450;-73
2021/11/06 04:01:21;;;;;;;2.88;2.42;;;;;;;12.96;54.11;99279.72;3482462;28;20135;-72
2021/11/06 04:03:02;;;;;;;2.50;2.30;;;;;;;12.94;54.16;99276.44;3481263;28;20037;-71
2021/11/06 04:04:43;;;;;;;2.70;2.35;;;;;;;12.92;54.27;99278.50;3477326;28;20136;-72
2021/11/06 04:06:23;;;;;;;1.90;1.60;;;;;;;12.90;54.53;99272.56;3481023;28;20385;-72
2021/11/06 04:08:04;;;;;;;2.35;2.05;;;;;;;12.90;54.42;99272.56;3482637;28;20045;-72
2021/11/06 04:09:45;;;;;;;4.65;2.80;;;;;;;12.89;54.33;99276.28;3482224;28;20508;-72
2021/11/06 04:11:25;;;;;;;3.65;1.92;;;;;;;12.86;54.30;99276.72;3482775;28;20044;-71
2021/11/06 04:13:06;;;;;;;4.55;2.78;;;;;;;12.81;54.45;99277.38;3482029;28;20496;-72
2021/11/06 04:14:47;;;;;;;2.67;2.25;;;;;;;12.83;54.56;99277.97;3481329;28;20032;-72
2021/11/06 04:16:28;;;;;;;4.60;2.03;;;;;;;12.82;54.50;99278.19;3482570;28;20455;-72
2021/11/06 04:18:08;;;;;;;4.18;2.03;;;;;;;12.82;54.47;99292.38;3482145;28;20072;-71
2021/11/06 04:19:49;;;;;;;2.75;2.33;;;;;;;12.81;54.57;99274.69;3481580;28;20523;-71
2021/11/06 04:21:32;;;;;;;2.67;2.47;;;;;;;12.78;54.44;99282.34;3482337;28;20554;-72
2021/11/06 04:23:13;;;;;;;2.20;1.90;;;;;;;12.78;54.46;99287.72;3482010;28;20047;-72
2021/11/06 04:24:54;;;;;;;2.38;2.17;;;;;;;12.77;54.53;99286.84;3492767;28;20040;-72
2021/11/06 04:26:34;;;;;;;1.98;1.75;;;;;;;12.75;54.54;99270.25;3496343;28;20044;-72
2021/11/06 04:28:15;;;;;;;3.10;2.55;;;;;;;12.74;54.53;99281.16;3496181;28;20223;-72
2021/11/06 04:29:56;;;;;;;2.70;2.20;;;;;;;12.72;54.55;99277.88;3481404;28;20127;-72
2021/11/06 04:31:37;;;;;;;3.28;2.20;;;;;;;12.72;54.54;99288.56;3478078;28;20539;-72
2021/11/06 04:33:18;;;;;;;4.85;2.45;;;;;;;12.69;54.70;99280.97;3477972;28;20040;-71
2021/11/06 04:34:58;;;;;;;3.75;2.90;;;;;;;12.68;54.67;99287.38;3492616;28;20044;-71
2021/11/06 04:36:39;;;;;;;4.07;2.50;;;;;;;12.65;54.48;99284.09;3496032;28;20043;-70
2021/11/06 04:38:20;;;;;;;2.65;2.45;;;;;;;12.65;54.76;99276.06;3495250;28;20040;-71
2021/11/06 04:40:00;;;;;;;2.78;2.03;;;;;;;12.66;54.78;99276.88;3495934;28;20040;-70
2021/11/06 04:41:41;;;;;;;2.75;2.53;;;;;;;12.64;54.90;99277.09;3496319;28;20044;-71
2021/11/06 04:43:22;;;;;;;2.22;2.00;;;;;;;12.66;54.86;99287.59;3495746;28;20068;-71
2021/11/06 04:45:04;;;;;;;3.42;2.42;;;;;;;12.62;54.85;99268.50;3494880;28;20063;-70
2021/11/06 04:46:45;;;;;;;2.53;2.17;;;;;;;12.65;54.74;99277.94;3495906;28;20051;-71
2021/11/06 04:48:26;;;;;;;2.35;2.10;;;;;;;12.66;54.83;99282.22;3495945;28;20408;-70
2021/11/06 04:50:09;;;;;;;3.40;2.47;;;;;;;12.63;54.98;99275.47;3495844;28;20079;-71
2021/11/06 04:51:49;;;;;;;2.42;2.10;;;;;;;12.64;54.76;99285.13;3480960;28;20037;-72
2021/11/06 04:53:30;;;;;;;5.13;2.60;;;;;;;12.65;54.81;99277.94;3492426;28;20572;-71
2021/11/06 04:55:14;;;;;;;2.72;2.25;;;;;;;12.64;54.81;99281.63;3495419;28;20040;-71
2021/11/06 04:56:55;;;;;;;3.95;1.98;;;;;;;12.62;54.73;99267.66;3496199;28;20504;-70
2021/11/06 04:58:36;;;;;;;2.58;2.33;;;;;;;12.60;54.58;99270.56;3495879;28;20044;-71
2021/11/06 05:00:17;;;;;;;2.22;2.03;;;;;;;12.57;54.81;99281.69;3495235;28;20043;-71
2021/11/06 05:01:58;;;;;;;2.60;2.15;;;;;;;12.58;54.87;99277.97;3495677;28;20097;-71
2021/11/06 05:03:38;;;;;;;3.28;2.35;;;;;;;12.57;54.84;99280.84;3495367;28;20185;-71
2021/11/06 05:05:19;;;;;;;2.55;1.95;;;;;;;12.55;54.73;99283.75;3495251;28;20047;-71
2021/11/06 05:07:00;;;;;;;3.92;2.85;;;;;;;12.53;54.76;99285.81;3495778;28;20044;-70
2021/11/06 05:08:41;;;;;;;4.00;1.83;;;;;;;12.52;54.72;99283.34;3495893;28;20036;-71
2021/11/06 05:10:21;;;;;;;4.32;2.67;;;;;;;12.51;54.71;99287.88;3495710;28;20508;-71
2021/11/06 05:12:03;;;;;;;2.58;2.13;;;;;;;12.52;54.83;99284.19;3496061;28;20037;-71
2021/11/06 05:13:43;;;;;;;2.35;2.15;;;;;;;12.52;54.84;99273.50;3495499;28;20179;-71
2021/11/06 05:15:24;;;;;;;2.63;2.10;;;;;;;12.54;54.98;99259.91;3495116;28;20102;-72
2021/11/06 05:17:05;;;;;;;2.55;2.08;;;;;;;12.52;55.05;99257.47;3496149;28;20047;-72
2021/11/06 05:18:46;;;;;;;3.10;2.35;;;;;;;12.54;55.11;99260.72;3495841;28;20094;-72
2021/11/06 05:20:26;;;;;;;2.95;2.15;;;;;;;12.55;55.18;99265.06;3495170;28;20090;-73
2021/11/06 05:22:08;;;;;;;3.92;1.92;;;;;;;12.54;55.10;99263.41;3496097;28;20418;-71
2021/11/06 05:23:49;;;;;;;2.35;2.15;;;;;;;12.53;55.00;99256.41;3495532;28;20040;-72
2021/11/06 05:25:30;;;;;;;2.38;1.95;;;;;;;12.52;54.71;99251.28;3479528;28;20527;-73
2021/11/06 05:27:11;;;;;;;5.68;2.40;;;;;;;12.52;55.07;99241.44;3478015;28;20410;-71
2021/11/06 05:28:51;;;;;;;3.53;1.83;;;;;;;12.51;54.92;99255.81;3492665;28;20033;-71
2021/11/06 05:30:32;;;;;;;2.30;2.10;;;;;;;12.51;55.12;99252.31;3495231;28;20495;-71
2021/11/06 05:32:13;;;;;;;2.63;2.13;;;;;;;12.50;55.04;99240.81;3496111;28;20052;-72
2021/11/06 05:33:54;;;;;;;2.05;1.95;;;;;;;12.50;55.05;99226.66;3497298;28;20041;-73
2021/11/06 05:35:35;;;;;;;2.65;2.00;;;;;;;12.49;55.08;99228.47;3497312;28;20521;-72
2021/11/06 05:37:16;;;;;;;1.85;1.73;;;;;;;12.50;55.05;99232.81;3480653;28;20051;-72
2021/11/06 05:38:57;;;;;;;4.07;2.03;;;;;;;12.50;55.09;99232.81;3492712;28;20040;-71
2021/11/06 05:40:38;;;;;;;4.10;2.38;;;;;;;12.51;55.06;99238.97;3481708;28;20044;-73
2021/11/06 05:42:19;;;;;;;4.70;1.95;;;;;;;12.50;54.95;99237.34;3481799;28;20048;-72
2021/11/06 05:44:00;;;;;;;2.75;2.28;;;;;;;12.52;55.00;99235.25;3490024;28;20028;-71
2021/11/06 05:45:41;;;;;;;2.33;2.13;;;;;;;12.51;55.04;99255.81;3495336;28;20040;-72
2021/11/06 05:47:22;;;;;;;2.88;2.05;;;;;;;12.50;55.11;99248.84;3495065;28;20036;-72
2021/11/06 05:49:02;;;;;;;1.63;1.52;;;;;;;12.53;55.00;99251.06;3482884;28;20439;-71
2021/11/06 05:50:43;;;;;;;5.07;2.03;;;;;;;12.55;55.05;99246.34;3497331;28;20036;-72
2021/11/06 05:52:24;;;;;;;2.38;2.13;;;;;;;12.54;54.95;99241.19;3483563;28;20051;-72
2021/11/06 05:54:07;;;;;;;2.85;2.30;;;;;;;12.53;55.12;99235.03;3493836;28;20399;-72
2021/11/06 05:55:48;;;;;;;2.83;2.10;;;;;;;12.56;54.96;99236.47;3483362;28;20051;-73
2021/11/06 05:57:29;;;;;;;2.70;2.50;;;;;;;12.56;54.96;99234.59;3494623;28;20500;-73
2021/11/06 05:59:10;;;;;;;3.50;2.03;;;;;;;12.57;54.93;99238.94;3498082;28;20040;-73
2021/11/06 06:00:50;;;;;;;2.67;2.33;;;;;;;12.56;55.15;99234.59;3494122;28;20444;-72
2021/11/06 06:02:31;;;;;;;6.50;2.60;;;;;;;12.56;54.98;99250.63;3489702;28;20064;-72
2021/11/06 06:04:12;;;;;;;3.83;2.08;;;;;;;12.58;54.93;99255.78;3496693;28;20392;-71
2021/11/06 06:05:53;;;;;;;2.58;2.15;;;;;;;12.58;55.00;99255.78;3497983;28;20173;-72
2021/11/06 06:07:34;;;;;;;2.20;2.00;;;;;;;12.58;54.83;99267.28;3497036;28;20408;-72
2021/11/06 06:09:15;;;;;;;2.60;1.98;;;;;;;12.57;54.84;99270.16;3484306;28;20041;-72
2021/11/06 06:10:55;;;;;;;2.90;1.77;;;;;;;12.56;54.70;99280.03;3484340;28;20045;-72
2021/11/06 06:12:37;;;;;;;2.28;2.08;;;;;;;12.57;54.80;99289.72;3484187;28;20045;-71
2021/11/06 06:14:17;;;;;;;2.53;2.25;;;;;;;12.56;54.57;99290.72;3489518;28;20044;-71
2021/11/06 06:15:58;;;;;;;5.70;2.30;;;;;;;12.52;54.61;99286.03;3497779;28;20087;-72
2021/11/06 06:17:39;;;;;;;2.63;1.75;;;;;;;12.51;54.76;99282.53;3482178;28;20610;-71
2021/11/06 06:19:20;;;;;;;6.30;2.20;;;;;;;12.48;54.79;99266.94;3480485;28;20511;-71
2021/11/06 06:21:00;;;;;;;6.47;2.20;;;;;;;12.47;54.77;99276.00;3495334;28;20083;-70
2021/11/06 06:22:41;;;;;;;7.15;2.38;;;;;;;12.47;54.97;99286.72;3498724;28;20576;-73
2021/11/06 06:24:22;;;;;;;2.80;2.20;;;;;;;12.42;54.96;99265.16;3496552;28;20055;-71
2021/11/06 06:26:03;;;;;;;3.35;1.98;;;;;;;12.44;54.93;99266.56;3497382;28;20041;-71
2021/11/06 06:27:44;;;;;;;3.50;1.80;;;;;;;12.45;55.15;99259.38;3469121;28;20113;-72
2021/11/06 06:29:24;;;;;;;3.30;2.08;;;;;;;12.43;55.21;99251.56;3480607;28;20040;-72
2021/11/06 06:31:06;;;;;;;2.95;2.05;;;;;;;12.46;54.99;99261.00;3495326;28;20095;-71
2021/11/06 06:32:47;;;;;;;2.33;1.90;;;;;;;12.47;54.91;99245.78;3498141;28;20037;-72
2021/11/06 06:34:27;;;;;;;2.30;2.08;;;;;;;12.47;54.85;99243.94;3497855;28;20749;-72
2021/11/06 06:36:08;;;;;;;2.00;1.85;;;;;;;12.45;54.83;99240.66;3496955;28;20043;-72
2021/11/06 06:37:49;;;;;;;2.85;2.05;;;;;;;12.40;54.93;99243.16;3497443;28;20487;-72
2021/11/06 06:39:30;;;;;;;2.50;2.30;;;;;;;12.42;54.86;99241.09;3497908;28;20036;-72
2021/11/06 06:41:10;;;;;;;2.22;1.83;;;;;;;12.43;54.80;99238.19;3483243;28;20067;-72
2021/11/06 06:42:52;;;;;;;3.40;2.60;;;;;;;12.43;54.79;99232.03;3494519;28;20052;-72
2021/11/06 06:44:35;;;;;;;2.17;1.98;;;;;;;12.43;54.79;99232.84;3496480;28;20044;-72
2021/11/06 06:46:16;;;;;;;2.55;2.10;;;;;;;12.43;54.75;99232.03;3495953;28;20036;-73
2021/11/06 06:47:57;;;;;;;2.80;2.55;;;;;;;12.42;54.75;99231.22;3497242;28;20037;-71
2021/11/06 06:49:39;;;;;;;3.63;2.20;;;;;;;12.42;54.81;99225.88;3497101;28;20458;-72
2021/11/06 06:51:19;;;;;;;3.03;2.22;;;;;;;12.43;54.80;99232.84;3497759;28;20400;-71
2021/11/06 06:53:00;;;;;;;4.30;2.30;;;;;;;12.41;54.85;99231.44;3497351;28;20131;-72
2021/11/06 06:54:41;;;;;;;4.45;2.08;;;;;;;12.37;54.80;99223.03;3496911;28;20047;-72
2021/11/06 06:56:22;;;;;;;4.15;2.65;;;;;;;12.40;54.75;99232.47;3497265;28;20093;-72
2021/11/06 06:58:02;;;;;;;3.83;1.80;;;;;;;12.39;54.69;99237.00;3497304;28;20124;-72
2021/11/06 06:59:43;;;;;;;2.20;1.95;;;;;;;12.40;54.82;99235.97;3497483;28;20070;-73
2021/11/06 07:01:24;;;;;;;2.38;2.22;;;;;;;12.40;54.86;99229.81;3482179;28;20045;-73
2021/11/06 07:03:05;;;;;;;3.60;2.38;;;;;;;12.38;55.04;99239.88;3494456;28;20068;-73
2021/11/06 07:04:45;;;;;;;2.58;1.98;;;;;;;12.37;54.92;99239.06;3497266;28;20101;-72
2021/11/06 07:06:26;;;;;;;4.70;2.08;;;;;;;12.35;54.87;99246.47;3496799;28;20036;-72
2021/11/06 07:08:07;;;;;;;5.25;2.03;;;;;;;12.33;54.93;99248.53;3481122;28;20041;-72
2021/11/06 07:09:48;;;;;;;4.90;2.30;;;;;;;12.36;54.87;99255.31;3493601;28;20052;-72
2021/11/06 07:11:29;;;;;;;3.97;2.13;;;;;;;12.35;55.17;99265.19;3476828;28;20049;-72
2021/11/06 07:13:10;;;;;;;2.92;1.73;;;;;;;12.33;55.21;99253.91;3488665;28;20048;-72
2021/11/06 07:14:52;;;;;;;2.78;2.22;;;;;;;12.32;55.15;99251.44;3497183;28;20040;-73
2021/11/06 07:16:34;;;;;;;4.32;2.20;;;;;;;12.33;55.06;99253.06;3495941;28;20101;-71
2021/11/06 07:18:16;;;;;;;3.53;2.42;;;;;;;12.32;55.06;99251.44;3483188;28;20048;-73
2021/11/06 07:19:56;;;;;;;3.53;2.15;;;;;;;12.33;55.03;99255.75;3481341;28;20047;-71
2021/11/06 07:21:37;;;;;;;2.22;2.03;;;;;;;12.31;55.03;99247.13;3494197;28;20036;-73
2021/11/06 07:23:18;;;;;;;2.40;1.98;;;;;;;12.34;55.07;99255.53;3483682;28;20041;-73
2021/11/06 07:24:59;;;;;;;3.45;2.22;;;;;;;12.34;55.23;99238.66;3482860;28;20084;-71
2021/11/06 07:26:40;;;;;;;3.30;2.10;;;;;;;12.34;54.96;99230.66;3483082;28;20526;-71
2021/11/06 07:28:20;;;;;;;2.55;1.90;;;;;;;12.37;55.02;99240.94;3468312;28;20044;-71
2021/11/06 07:30:02;;;;;;;2.25;1.83;;;;;;;12.37;54.97;99238.25;3487623;28;20553;-72
2021/11/06 07:31:44;;;;;;;5.00;1.92;;;;;;;12.39;55.13;99247.69;3496893;28;20455;-73
2021/11/06 07:33:24;;;;;;;1.88;1.77;;;;;;;12.39;55.00;99253.03;3495052;28;20044;-73
2021/11/06 07:35:06;;;;;;;5.20;2.08;;;;;;;12.35;55.04;99245.66;3482300;28;20393;-72
2021/11/06 07:36:47;;;;;;;4.45;2.10;;;;;;;12.37;54.98;99246.28;3493830;28;20119;-73
2021/11/06 07:38:28;;;;;;;3.08;1.67;;;;;;;12.39;55.33;99254.88;3481912;28;20602;-72
2021/11/06 07:40:10;;;;;;;7.13;1.80;;;;;;;12.37;55.11;99246.28;3492792;28;20430;-73
2021/11/06 07:41:50;;;;;;;;;;;;;;;12.49;55.22;99252.53;3497187;28;20072;-72
2021/11/06 07:43:31;;;;;;;2.83;1.65;;;;;;;12.41;55.05;99247.47;3481988;28;20445;-73
2021/11/06 07:45:14;;;;;;;3.28;2.08;;;;;;;12.43;55.12;99232.84;3478980;28;20120;-73
2021/11/06 07:46:55;;;;;;;3.08;2.05;;;;;;;12.44;55.12;99239.84;3486347;28;20040;-72
2021/11/06 07:48:36;;;;;;;2.38;2.08;;;;;;;12.43;55.23;99238.19;3482874;28;20063;-73
2021/11/06 07:50:18;;;;;;;3.28;2.20;;;;;;;12.45;55.31;99235.31;3492075;28;20032;-72
2021/11/06 07:51:59;;;;;;;2.08;1.75;;;;;;;12.44;55.40;99228.31;3496735;28;20048;-73
2021/11/06 07:53:40;;;;;;;2.90;1.55;;;;;;;12.48;55.28;99232.19;3497077;28;20048;-73
2021/11/06 07:55:21;;;;;;;5.75;1.90;;;;;;;12.49;55.21;99241.84;3481961;28;20052;-72